sensor_id;sensor_type;location;lat;lon;timestamp;pressure;altitude;pressure_sealevel;temperature;humidity
59063;BME280;44851;45.648;9.004;2024-01-07T00:02:11;97281.44;;;5.93;82.25
59063;BME280;44851;45.648;9.004;2024-01-07T00:04:37;97288.94;;;5.86;82.46
59063;BME280;44851;45.648;9.004;2024-01-07T00:07:04;97278.97;;;5.91;82.53
59063;BME280;44851;45.648;9.004;2024-01-07T00:09:29;97280.63;;;5.92;82.41
59063;BME280;44851;45.648;9.004;2024-01-07T00:11:55;97277.28;;;5.82;82.39
59063;BME280;44851;45.648;9.004;2024-01-07T00:14:20;97267.22;;;5.79;82.80
59063;BME280;44851;45.648;9.004;2024-01-07T00:16:45;97261.63;;;5.83;83.99
59063;BME280;44851;45.648;9.004;2024-01-07T00:19:11;97270.84;;;5.86;83.24
59063;BME280;44851;45.648;9.004;2024-01-07T00:21:36;97261.44;;;5.85;83.53
59063;BME280;44851;45.648;9.004;2024-01-07T00:24:01;97264.28;;;5.92;83.79
59063;BME280;44851;45.648;9.004;2024-01-07T00:26:27;97267.00;;;5.90;83.77
59063;BME280;44851;45.648;9.004;2024-01-07T00:28:53;97258.81;;;5.95;84.01
59063;BME280;44851;45.648;9.004;2024-01-07T00:31:19;97256.72;;;5.98;83.58
59063;BME280;44851;45.648;9.004;2024-01-07T00:33:45;97259.81;;;6.02;83.35
59063;BME280;44851;45.648;9.004;2024-01-07T00:36:10;97258.81;;;5.95;82.69
59063;BME280;44851;45.648;9.004;2024-01-07T00:38:35;97260.63;;;6.02;84.11
59063;BME280;44851;45.648;9.004;2024-01-07T00:41:01;97256.72;;;5.98;83.44
59063;BME280;44851;45.648;9.004;2024-01-07T00:43:26;97254.75;;;5.92;82.89
59063;BME280;44851;45.648;9.004;2024-01-07T00:45:51;97256.53;;;5.92;83.50
59063;BME280;44851;45.648;9.004;2024-01-07T00:48:16;97258.63;;;5.96;84.35
59063;BME280;44851;45.648;9.004;2024-01-07T00:50:42;97259.00;;;6.01;83.89
59063;BME280;44851;45.648;9.004;2024-01-07T00:53:07;97262.25;;;6.03;83.65
59063;BME280;44851;45.648;9.004;2024-01-07T00:55:33;97258.28;;;5.91;84.63
59063;BME280;44851;45.648;9.004;2024-01-07T00:58:00;97255.75;;;5.99;84.10
59063;BME280;44851;45.648;9.004;2024-01-07T01:00:26;97267.44;;;6.03;83.86
59063;BME280;44851;45.648;9.004;2024-01-07T01:02:51;97270.97;;;6.02;83.22
59063;BME280;44851;45.648;9.004;2024-01-07T01:05:17;97272.34;;;5.88;83.35
59063;BME280;44851;45.648;9.004;2024-01-07T01:07:42;97268.03;;;5.97;84.00
59063;BME280;44851;45.648;9.004;2024-01-07T01:10:08;97276.16;;;6.02;83.78
59063;BME280;44851;45.648;9.004;2024-01-07T01:12:33;97262.50;;;5.92;83.26
59063;BME280;44851;45.648;9.004;2024-01-07T01:14:59;97269.13;;;5.95;84.27
59063;BME280;44851;45.648;9.004;2024-01-07T01:17:24;97280.81;;;5.99;83.84
59063;BME280;44851;45.648;9.004;2024-01-07T01:19:49;97279.31;;;5.96;83.62
59063;BME280;44851;45.648;9.004;2024-01-07T01:22:15;97282.28;;;5.83;83.22
59063;BME280;44851;45.648;9.004;2024-01-07T01:24:40;97282.22;;;5.93;83.94
59063;BME280;44851;45.648;9.004;2024-01-07T01:27:05;97284.50;;;5.96;83.74
59063;BME280;44851;45.648;9.004;2024-01-07T01:29:31;97286.78;;;5.99;83.73
59063;BME280;44851;45.648;9.004;2024-01-07T01:31:56;97285.22;;;6.06;83.82
59063;BME280;44851;45.648;9.004;2024-01-07T01:34:22;97293.56;;;6.00;83.39
59063;BME280;44851;45.648;9.004;2024-01-07T01:36:47;97286.94;;;5.98;83.28
59063;BME280;44851;45.648;9.004;2024-01-07T01:39:13;97288.41;;;6.00;83.63
59063;BME280;44851;45.648;9.004;2024-01-07T01:41:38;97291.97;;;5.99;83.00
59063;BME280;44851;45.648;9.004;2024-01-07T01:44:04;97298.47;;;6.03;83.56
59063;BME280;44851;45.648;9.004;2024-01-07T01:46:30;97294.91;;;6.04;83.79
59063;BME280;44851;45.648;9.004;2024-01-07T01:48:56;97292.97;;;6.06;83.40
59063;BME280;44851;45.648;9.004;2024-01-07T01:51:22;97292.97;;;6.06;83.46
59063;BME280;44851;45.648;9.004;2024-01-07T01:53:49;97293.28;;;6.03;82.95
59063;BME280;44851;45.648;9.004;2024-01-07T01:56:16;97295.41;;;6.08;83.52
59063;BME280;44851;45.648;9.004;2024-01-07T01:58:42;97307.50;;;6.07;82.79
59063;BME280;44851;45.648;9.004;2024-01-07T02:01:07;97300.06;;;6.04;82.79
59063;BME280;44851;45.648;9.004;2024-01-07T02:03:33;97297.34;;;6.06;83.32
59063;BME280;44851;45.648;9.004;2024-01-07T02:05:58;97306.34;;;6.02;83.01
59063;BME280;44851;45.648;9.004;2024-01-07T02:08:25;97296.16;;;6.00;82.42
59063;BME280;44851;45.648;9.004;2024-01-07T02:10:50;97295.19;;;6.01;82.75
59063;BME280;44851;45.648;9.004;2024-01-07T02:13:15;97287.75;;;5.98;82.33
59063;BME280;44851;45.648;9.004;2024-01-07T02:15:41;97291.97;;;5.99;83.08
59063;BME280;44851;45.648;9.004;2024-01-07T02:18:06;97293.28;;;6.03;82.95
59063;BME280;44851;45.648;9.004;2024-01-07T02:20:32;97301.03;;;6.03;82.58
59063;BME280;44851;45.648;9.004;2024-01-07T02:22:57;97297.13;;;5.99;82.75
59063;BME280;44851;45.648;9.004;2024-01-07T02:25:23;97293.91;;;5.97;82.11
59063;BME280;44851;45.648;9.004;2024-01-07T02:27:48;97296.78;;;5.94;82.82
59063;BME280;44851;45.648;9.004;2024-01-07T02:30:14;97297.44;;;5.96;82.95
59063;BME280;44851;45.648;9.004;2024-01-07T02:32:39;97288.84;;;5.96;82.63
59063;BME280;44851;45.648;9.004;2024-01-07T02:35:05;97289.03;;;5.94;82.46
59063;BME280;44851;45.648;9.004;2024-01-07T02:37:30;97303.56;;;5.95;82.14
59063;BME280;44851;45.648;9.004;2024-01-07T02:39:56;97298.72;;;5.92;82.35
59063;BME280;44851;45.648;9.004;2024-01-07T02:42:21;97296.25;;;5.90;81.79
59063;BME280;44851;45.648;9.004;2024-01-07T02:44:47;97297.75;;;5.93;81.77
59063;BME280;44851;45.648;9.004;2024-01-07T02:47:12;97300.50;;;5.92;82.17
59063;BME280;44851;45.648;9.004;2024-01-07T02:49:37;97301.59;;;5.89;82.23
59063;BME280;44851;45.648;9.004;2024-01-07T02:52:03;97305.72;;;5.82;81.85
59063;BME280;44851;45.648;9.004;2024-01-07T02:54:28;97299.66;;;5.91;82.78
59063;BME280;44851;45.648;9.004;2024-01-07T02:56:54;97295.06;;;5.85;82.10
59063;BME280;44851;45.648;9.004;2024-01-07T02:59:19;97293.91;;;5.79;81.41
59063;BME280;44851;45.648;9.004;2024-01-07T03:01:45;97291.72;;;5.67;82.64
59063;BME280;44851;45.648;9.004;2024-01-07T03:04:11;97293.97;;;5.70;82.72
59063;BME280;44851;45.648;9.004;2024-01-07T03:06:37;97297.28;;;5.80;82.57
59063;BME280;44851;45.648;9.004;2024-01-07T03:09:03;97293.84;;;5.71;82.33
59063;BME280;44851;45.648;9.004;2024-01-07T03:11:28;97300.44;;;5.66;82.18
59063;BME280;44851;45.648;9.004;2024-01-07T03:13:55;97306.84;;;5.61;81.30
59063;BME280;44851;45.648;9.004;2024-01-07T03:16:21;97302.56;;;5.52;82.42
59063;BME280;44851;45.648;9.004;2024-01-07T03:18:46;97307.81;;;5.60;82.86
59063;BME280;44851;45.648;9.004;2024-01-07T03:21:19;97304.47;;;5.68;82.98
59063;BME280;44851;45.648;9.004;2024-01-07T03:23:45;97293.94;;;5.61;82.77
59063;BME280;44851;45.648;9.004;2024-01-07T03:26:11;97301.25;;;5.66;83.15
59063;BME280;44851;45.648;9.004;2024-01-07T03:28:37;97305.47;;;5.49;82.50
59063;BME280;44851;45.648;9.004;2024-01-07T03:31:08;97302.88;;;5.67;82.85
59063;BME280;44851;45.648;9.004;2024-01-07T03:33:34;97305.09;;;5.62;82.12
59063;BME280;44851;45.648;9.004;2024-01-07T03:35:59;97300.72;;;5.62;82.10
59063;BME280;44851;45.648;9.004;2024-01-07T03:38:24;97294.94;;;5.69;82.08
59063;BME280;44851;45.648;9.004;2024-01-07T03:40:50;97302.53;;;5.70;81.87
59063;BME280;44851;45.648;9.004;2024-01-07T03:43:15;97295.63;;;5.71;82.17
59063;BME280;44851;45.648;9.004;2024-01-07T03:45:41;97303.16;;;5.64;81.99
59063;BME280;44851;45.648;9.004;2024-01-07T03:48:06;97301.84;;;5.60;81.55
59063;BME280;44851;45.648;9.004;2024-01-07T03:50:32;97300.50;;;5.56;81.81
59063;BME280;44851;45.648;9.004;2024-01-07T03:52:58;97306.06;;;5.61;81.70
59063;BME280;44851;45.648;9.004;2024-01-07T03:55:23;97315.63;;;5.69;81.71
59063;BME280;44851;45.648;9.004;2024-01-07T03:57:48;97309.81;;;5.67;81.66
59063;BME280;44851;45.648;9.004;2024-01-07T04:00:14;97313.66;;;5.62;81.35
59063;BME280;44851;45.648;9.004;2024-01-07T04:02:39;97314.59;;;5.61;81.50
59063;BME280;44851;45.648;9.004;2024-01-07T04:05:04;97317.56;;;5.67;82.25
59063;BME280;44851;45.648;9.004;2024-01-07T04:07:30;97321.53;;;5.43;81.36
59063;BME280;44851;45.648;9.004;2024-01-07T04:09:56;97316.31;;;5.53;82.32
59063;BME280;44851;45.648;9.004;2024-01-07T04:12:21;97317.28;;;5.52;82.50
59063;BME280;44851;45.648;9.004;2024-01-07T04:14:47;97316.03;;;5.56;82.80
59063;BME280;44851;45.648;9.004;2024-01-07T04:17:12;97318.75;;;5.54;82.75
59063;BME280;44851;45.648;9.004;2024-01-07T04:19:38;97323.63;;;5.57;82.15
59063;BME280;44851;45.648;9.004;2024-01-07T04:22:03;97314.28;;;5.64;83.01
59063;BME280;44851;45.648;9.004;2024-01-07T04:24:28;97322.72;;;5.67;81.88
59063;BME280;44851;45.648;9.004;2024-01-07T04:26:54;97322.00;;;5.56;82.03
59063;BME280;44851;45.648;9.004;2024-01-07T04:29:19;97328.63;;;5.59;82.25
59063;BME280;44851;45.648;9.004;2024-01-07T04:31:44;97326.94;;;5.68;82.13
59063;BME280;44851;45.648;9.004;2024-01-07T04:34:10;97329.50;;;5.68;82.45
59063;BME280;44851;45.648;9.004;2024-01-07T04:36:35;97329.81;;;5.64;82.41
59063;BME280;44851;45.648;9.004;2024-01-07T04:39:00;97329.44;;;5.59;81.86
59063;BME280;44851;45.648;9.004;2024-01-07T04:41:26;97335.56;;;5.58;81.77
59063;BME280;44851;45.648;9.004;2024-01-07T04:43:51;97337.88;;;5.61;82.51
59063;BME280;44851;45.648;9.004;2024-01-07T04:46:17;97334.97;;;5.64;82.19
59063;BME280;44851;45.648;9.004;2024-01-07T04:48:43;97336.63;;;5.66;82.56
59063;BME280;44851;45.648;9.004;2024-01-07T04:51:08;97332.38;;;5.64;81.86
59063;BME280;44851;45.648;9.004;2024-01-07T04:53:33;97338.25;;;5.67;81.86
59063;BME280;44851;45.648;9.004;2024-01-07T04:55:59;97334.41;;;5.71;81.91
59063;BME280;44851;45.648;9.004;2024-01-07T04:58:24;97345.03;;;5.68;81.83
59063;BME280;44851;45.648;9.004;2024-01-07T05:00:49;97352.13;;;5.66;82.33
59063;BME280;44851;45.648;9.004;2024-01-07T05:03:15;97351.75;;;5.60;82.09
59063;BME280;44851;45.648;9.004;2024-01-07T05:05:40;97351.81;;;5.69;82.46
59063;BME280;44851;45.648;9.004;2024-01-07T05:08:06;97349.91;;;5.71;81.96
59063;BME280;44851;45.648;9.004;2024-01-07T05:10:31;97369.84;;;5.60;81.52
59063;BME280;44851;45.648;9.004;2024-01-07T05:12:57;97373.16;;;5.53;82.19
59063;BME280;44851;45.648;9.004;2024-01-07T05:15:22;97368.06;;;5.61;82.77
59063;BME280;44851;45.648;9.004;2024-01-07T05:17:47;97360.81;;;5.64;82.87
59063;BME280;44851;45.648;9.004;2024-01-07T05:20:15;97362.31;;;5.67;82.98
59063;BME280;44851;45.648;9.004;2024-01-07T05:22:40;97372.00;;;5.65;82.13
59063;BME280;44851;45.648;9.004;2024-01-07T05:25:06;97374.59;;;5.65;82.71
59063;BME280;44851;45.648;9.004;2024-01-07T05:27:31;97370.13;;;5.57;82.87
59063;BME280;44851;45.648;9.004;2024-01-07T05:29:57;97374.41;;;5.67;83.45
59063;BME280;44851;45.648;9.004;2024-01-07T05:32:22;97377.44;;;5.62;82.21
59063;BME280;44851;45.648;9.004;2024-01-07T05:34:48;97378.72;;;5.76;82.01
59063;BME280;44851;45.648;9.004;2024-01-07T05:37:14;97362.47;;;5.66;82.28
59063;BME280;44851;45.648;9.004;2024-01-07T05:39:39;97375.22;;;5.67;82.81
59063;BME280;44851;45.648;9.004;2024-01-07T05:42:05;97382.63;;;5.62;82.90
59063;BME280;44851;45.648;9.004;2024-01-07T05:44:30;97382.34;;;5.65;82.95
59063;BME280;44851;45.648;9.004;2024-01-07T05:46:55;97381.22;;;5.68;82.33
59063;BME280;44851;45.648;9.004;2024-01-07T05:49:21;97389.25;;;5.64;82.32
59063;BME280;44851;45.648;9.004;2024-01-07T05:51:46;97381.75;;;5.71;83.11
59063;BME280;44851;45.648;9.004;2024-01-07T05:54:11;97376.31;;;5.64;82.16
59063;BME280;44851;45.648;9.004;2024-01-07T05:56:40;97384.31;;;5.71;82.97
59063;BME280;44851;45.648;9.004;2024-01-07T05:59:06;97383.19;;;5.74;82.06
59063;BME280;44851;45.648;9.004;2024-01-07T06:01:32;97378.19;;;5.72;82.43
59063;BME280;44851;45.648;9.004;2024-01-07T06:03:57;97377.88;;;5.75;82.68
59063;BME280;44851;45.648;9.004;2024-01-07T06:06:22;97392.56;;;5.75;82.49
59063;BME280;44851;45.648;9.004;2024-01-07T06:08:48;97387.72;;;5.72;82.57
59063;BME280;44851;45.648;9.004;2024-01-07T06:11:13;97399.59;;;5.64;82.68
59063;BME280;44851;45.648;9.004;2024-01-07T06:13:44;97405.72;;;5.63;82.63
59063;BME280;44851;45.648;9.004;2024-01-07T06:16:09;97399.59;;;5.64;82.90
59063;BME280;44851;45.648;9.004;2024-01-07T06:18:34;97392.16;;;5.61;81.89
59063;BME280;44851;45.648;9.004;2024-01-07T06:21:00;97389.41;;;5.63;82.52
59063;BME280;44851;45.648;9.004;2024-01-07T06:23:25;97389.63;;;5.70;82.21
59063;BME280;44851;45.648;9.004;2024-01-07T06:25:50;97405.44;;;5.67;82.32
59063;BME280;44851;45.648;9.004;2024-01-07T06:28:16;97398.34;;;5.69;82.29
59063;BME280;44851;45.648;9.004;2024-01-07T06:30:41;97403.81;;;5.66;82.68
59063;BME280;44851;45.648;9.004;2024-01-07T06:33:06;97402.16;;;5.64;82.62
59063;BME280;44851;45.648;9.004;2024-01-07T06:35:32;97407.06;;;5.68;82.45
59063;BME280;44851;45.648;9.004;2024-01-07T06:37:57;97402.16;;;5.64;82.35
59063;BME280;44851;45.648;9.004;2024-01-07T06:40:22;97400.88;;;5.60;82.12
59063;BME280;44851;45.648;9.004;2024-01-07T06:42:48;97397.31;;;5.61;82.34
59063;BME280;44851;45.648;9.004;2024-01-07T06:45:14;97406.25;;;5.67;82.36
59063;BME280;44851;45.648;9.004;2024-01-07T06:47:40;97411.25;;;5.69;82.62
59063;BME280;44851;45.648;9.004;2024-01-07T06:50:05;97403.56;;;5.59;82.10
59063;BME280;44851;45.648;9.004;2024-01-07T06:52:31;97406.84;;;5.61;82.18
59063;BME280;44851;45.648;9.004;2024-01-07T06:54:57;97409.00;;;5.66;82.05
59063;BME280;44851;45.648;9.004;2024-01-07T06:57:22;97409.66;;;5.68;82.20
59063;BME280;44851;45.648;9.004;2024-01-07T06:59:47;97410.59;;;5.67;82.46
59063;BME280;44851;45.648;9.004;2024-01-07T07:02:13;97405.72;;;5.63;83.15
59063;BME280;44851;45.648;9.004;2024-01-07T07:04:38;97403.28;;;5.62;82.02
59063;BME280;44851;45.648;9.004;2024-01-07T07:07:03;97407.66;;;5.61;82.36
59063;BME280;44851;45.648;9.004;2024-01-07T07:09:29;97413.47;;;5.63;82.66
59063;BME280;44851;45.648;9.004;2024-01-07T07:11:54;97419.59;;;5.62;82.51
59063;BME280;44851;45.648;9.004;2024-01-07T07:14:20;97423.16;;;5.61;82.46
59063;BME280;44851;45.648;9.004;2024-01-07T07:16:45;97433.50;;;5.61;82.38
59063;BME280;44851;45.648;9.004;2024-01-07T07:19:11;97437.97;;;5.59;81.99
59063;BME280;44851;45.648;9.004;2024-01-07T07:21:40;97433.28;;;5.55;82.84
59063;BME280;44851;45.648;9.004;2024-01-07T07:24:05;97434.59;;;5.59;82.52
59063;BME280;44851;45.648;9.004;2024-01-07T07:26:31;97423.16;;;5.61;82.59
59063;BME280;44851;45.648;9.004;2024-01-07T07:28:57;97422.47;;;5.59;82.23
59063;BME280;44851;45.648;9.004;2024-01-07T07:31:22;97427.38;;;5.62;82.30
59063;BME280;44851;45.648;9.004;2024-01-07T07:33:47;97430.59;;;5.64;82.50
59063;BME280;44851;45.648;9.004;2024-01-07T07:36:14;97442.44;;;5.67;82.55
59063;BME280;44851;45.648;9.004;2024-01-07T07:38:40;97444.06;;;5.68;82.26
59063;BME280;44851;45.648;9.004;2024-01-07T07:41:05;97441.31;;;5.70;82.63
59063;BME280;44851;45.648;9.004;2024-01-07T07:43:30;97446.09;;;5.64;82.42
59063;BME280;44851;45.648;9.004;2024-01-07T07:45:56;97447.00;;;5.73;83.14
59063;BME280;44851;45.648;9.004;2024-01-07T07:48:21;97445.19;;;5.66;81.87
59063;BME280;44851;45.648;9.004;2024-01-07T07:50:48;97444.59;;;5.72;82.50
59063;BME280;44851;45.648;9.004;2024-01-07T07:53:14;97449.44;;;5.75;82.61
59063;BME280;44851;45.648;9.004;2024-01-07T07:55:40;97447.81;;;5.74;82.14
59063;BME280;44851;45.648;9.004;2024-01-07T07:58:05;97443.78;;;5.71;81.76
59063;BME280;44851;45.648;9.004;2024-01-07T08:00:31;97449.44;;;5.75;82.08
59063;BME280;44851;45.648;9.004;2024-01-07T08:02:56;97450.25;;;5.75;81.90
59063;BME280;44851;45.648;9.004;2024-01-07T08:05:21;97459.41;;;5.70;81.81
59063;BME280;44851;45.648;9.004;2024-01-07T08:07:47;97459.28;;;5.71;81.81
59063;BME280;44851;45.648;9.004;2024-01-07T08:10:12;97458.00;;;5.75;82.41
59063;BME280;44851;45.648;9.004;2024-01-07T08:12:38;97470.06;;;5.67;81.86
59063;BME280;44851;45.648;9.004;2024-01-07T08:15:04;97470.44;;;5.72;81.81
59063;BME280;44851;45.648;9.004;2024-01-07T08:17:30;97466.94;;;5.81;82.71
59063;BME280;44851;45.648;9.004;2024-01-07T08:19:55;97489.50;;;5.71;82.29
59063;BME280;44851;45.648;9.004;2024-01-07T08:22:21;97487.41;;;5.56;83.06
59063;BME280;44851;45.648;9.004;2024-01-07T08:24:46;97493.69;;;5.72;83.46
59063;BME280;44851;45.648;9.004;2024-01-07T08:27:11;97496.88;;;5.66;83.90
59063;BME280;44851;45.648;9.004;2024-01-07T08:29:37;97494.34;;;5.74;84.12
59063;BME280;44851;45.648;9.004;2024-01-07T08:32:02;97491.06;;;5.81;83.88
59063;BME280;44851;45.648;9.004;2024-01-07T08:34:28;97503.88;;;6.01;84.35
59063;BME280;44851;45.648;9.004;2024-01-07T08:36:53;97499.38;;;6.03;84.92
59063;BME280;44851;45.648;9.004;2024-01-07T08:39:19;97506.66;;;6.07;84.40
59063;BME280;44851;45.648;9.004;2024-01-07T08:41:44;97508.69;;;6.13;84.58
59063;BME280;44851;45.648;9.004;2024-01-07T08:44:10;97497.00;;;6.09;84.45
59063;BME280;44851;45.648;9.004;2024-01-07T08:46:36;97501.34;;;6.27;84.72
59063;BME280;44851;45.648;9.004;2024-01-07T08:49:01;97509.44;;;6.24;84.11
59063;BME280;44851;45.648;9.004;2024-01-07T08:51:27;97501.34;;;6.27;84.25
59063;BME280;44851;45.648;9.004;2024-01-07T08:53:52;97499.72;;;6.26;84.39
59063;BME280;44851;45.648;9.004;2024-01-07T08:56:17;97511.09;;;6.33;84.04
59063;BME280;44851;45.648;9.004;2024-01-07T08:58:43;97509.69;;;6.38;84.07
59063;BME280;44851;45.648;9.004;2024-01-07T09:01:09;97501.78;;;6.40;84.27
59063;BME280;44851;45.648;9.004;2024-01-07T09:03:34;97508.81;;;6.48;83.88
59063;BME280;44851;45.648;9.004;2024-01-07T09:05:59;97522.84;;;6.27;83.64
59063;BME280;44851;45.648;9.004;2024-01-07T09:08:25;97526.34;;;6.36;84.67
59063;BME280;44851;45.648;9.004;2024-01-07T09:10:50;97531.94;;;6.49;84.40
59063;BME280;44851;45.648;9.004;2024-01-07T09:13:16;97535.50;;;6.48;84.09
59063;BME280;44851;45.648;9.004;2024-01-07T09:15:41;97539.25;;;6.54;84.25
59063;BME280;44851;45.648;9.004;2024-01-07T09:18:07;97537.84;;;6.59;84.11
59063;BME280;44851;45.648;9.004;2024-01-07T09:20:32;97537.75;;;6.69;84.07
59063;BME280;44851;45.648;9.004;2024-01-07T09:22:58;97540.88;;;6.73;84.15
59063;BME280;44851;45.648;9.004;2024-01-07T09:25:24;97535.69;;;6.73;84.26
59063;BME280;44851;45.648;9.004;2024-01-07T09:27:51;97541.22;;;6.78;84.13
59063;BME280;44851;45.648;9.004;2024-01-07T09:30:16;97538.78;;;6.76;83.87
59063;BME280;44851;45.648;9.004;2024-01-07T09:32:43;97533.81;;;6.83;84.05
59063;BME280;44851;45.648;9.004;2024-01-07T09:35:08;97546.00;;;6.90;83.10
59063;BME280;44851;45.648;9.004;2024-01-07T09:37:34;97542.00;;;6.96;83.54
59063;BME280;44851;45.648;9.004;2024-01-07T09:40:01;97545.59;;;7.03;82.85
59063;BME280;44851;45.648;9.004;2024-01-07T09:42:26;97551.09;;;7.00;82.98
59063;BME280;44851;45.648;9.004;2024-01-07T09:44:52;97548.84;;;7.05;82.81
59063;BME280;44851;45.648;9.004;2024-01-07T09:47:17;97548.34;;;7.02;82.32
59063;BME280;44851;45.648;9.004;2024-01-07T09:49:43;97552.63;;;7.11;83.10
59063;BME280;44851;45.648;9.004;2024-01-07T09:52:10;97548.34;;;7.02;82.33
59063;BME280;44851;45.648;9.004;2024-01-07T09:54:40;97552.91;;;7.08;82.05
59063;BME280;44851;45.648;9.004;2024-01-07T09:57:08;97551.34;;;7.15;83.25
59063;BME280;44851;45.648;9.004;2024-01-07T09:59:34;97562.88;;;7.20;83.18
59063;BME280;44851;45.648;9.004;2024-01-07T10:02:00;97564.50;;;7.21;83.04
59063;BME280;44851;45.648;9.004;2024-01-07T10:04:26;97566.63;;;7.26;83.47
59063;BME280;44851;45.648;9.004;2024-01-07T10:06:53;97564.53;;;7.30;83.08
59063;BME280;44851;45.648;9.004;2024-01-07T10:09:19;97565.50;;;7.29;82.88
59063;BME280;44851;45.648;9.004;2024-01-07T10:11:45;97563.88;;;7.28;82.42
59063;BME280;44851;45.648;9.004;2024-01-07T10:14:10;97562.28;;;7.35;82.13
59063;BME280;44851;45.648;9.004;2024-01-07T10:16:36;97557.78;;;7.37;82.51
59063;BME280;44851;45.648;9.004;2024-01-07T10:19:01;97563.44;;;7.40;82.65
59063;BME280;44851;45.648;9.004;2024-01-07T10:21:27;97559.09;;;7.41;81.94
59063;BME280;44851;45.648;9.004;2024-01-07T10:24:11;97566.81;;;7.33;81.13
59063;BME280;44851;45.648;9.004;2024-01-07T10:26:40;97555.53;;;7.42;82.22
59063;BME280;44851;45.648;9.004;2024-01-07T10:29:07;97559.13;;;7.49;82.89
59063;BME280;44851;45.648;9.004;2024-01-07T10:31:37;97557.81;;;7.45;81.62
59063;BME280;44851;45.648;9.004;2024-01-07T10:34:07;97555.72;;;7.48;82.34
59063;BME280;44851;45.648;9.004;2024-01-07T10:36:33;97553.63;;;7.52;81.93
59063;BME280;44851;45.648;9.004;2024-01-07T10:38:58;97555.91;;;7.55;82.28
59063;BME280;44851;45.648;9.004;2024-01-07T10:41:25;97552.31;;;7.48;81.84
59063;BME280;44851;45.648;9.004;2024-01-07T10:43:50;97566.16;;;7.57;82.26
59063;BME280;44851;45.648;9.004;2024-01-07T10:46:16;97562.41;;;7.59;81.96
59063;BME280;44851;45.648;9.004;2024-01-07T10:48:54;97560.34;;;7.63;81.54
59063;BME280;44851;45.648;9.004;2024-01-07T10:51:21;97559.88;;;7.67;81.28
59063;BME280;44851;45.648;9.004;2024-01-07T10:53:51;97562.78;;;7.72;81.12
59063;BME280;44851;45.648;9.004;2024-01-07T10:56:22;97558.56;;;7.71;81.29
59063;BME280;44851;45.648;9.004;2024-01-07T10:58:49;97565.34;;;7.64;80.92
59063;BME280;44851;45.648;9.004;2024-01-07T11:01:16;97561.16;;;7.71;81.38
59063;BME280;44851;45.648;9.004;2024-01-07T11:06:38;97552.31;;;7.82;81.10
59063;BME280;44851;45.648;9.004;2024-01-07T11:09:03;97548.94;;;7.90;81.09
59063;BME280;44851;45.648;9.004;2024-01-07T11:11:40;97547.00;;;7.92;81.00
59063;BME280;44851;45.648;9.004;2024-01-07T11:17:06;97546.47;;;7.88;80.07
59063;BME280;44851;45.648;9.004;2024-01-07T11:19:31;97548.44;;;7.86;80.78
59063;BME280;44851;45.648;9.004;2024-01-07T11:22:23;97545.69;;;7.88;79.21
59063;BME280;44851;45.648;9.004;2024-01-07T11:24:59;97545.69;;;7.88;79.93
59063;BME280;44851;45.648;9.004;2024-01-07T11:27:28;97531.91;;;7.87;79.05
59063;BME280;44851;45.648;9.004;2024-01-07T11:30:01;97531.09;;;7.87;78.54
59063;BME280;44851;45.648;9.004;2024-01-07T11:32:30;97523.81;;;7.90;79.08
59063;BME280;44851;45.648;9.004;2024-01-07T11:34:55;97527.22;;;7.99;79.45
59063;BME280;44851;45.648;9.004;2024-01-07T11:37:23;97525.59;;;7.98;79.51
59063;BME280;44851;45.648;9.004;2024-01-07T11:39:51;97516.38;;;8.04;79.52
59063;BME280;44851;45.648;9.004;2024-01-07T11:42:17;97518.50;;;8.00;78.83
59063;BME280;44851;45.648;9.004;2024-01-07T11:44:53;97506.47;;;7.99;79.00
59063;BME280;44851;45.648;9.004;2024-01-07T11:47:20;97517.84;;;8.06;79.46
59063;BME280;44851;45.648;9.004;2024-01-07T11:49:46;97510.41;;;8.11;79.56
59063;BME280;44851;45.648;9.004;2024-01-07T11:52:12;97512.00;;;8.12;80.11
59063;BME280;44851;45.648;9.004;2024-01-07T11:54:38;97510.06;;;8.14;79.50
59063;BME280;44851;45.648;9.004;2024-01-07T11:57:07;97504.53;;;8.25;79.22
59063;BME280;44851;45.648;9.004;2024-01-07T11:59:34;97499.88;;;8.21;79.39
59063;BME280;44851;45.648;9.004;2024-01-07T12:02:00;97501.00;;;8.27;79.50
59063;BME280;44851;45.648;9.004;2024-01-07T12:04:26;97501.31;;;8.15;77.31
59063;BME280;44851;45.648;9.004;2024-01-07T12:06:52;97510.06;;;8.22;77.84
59063;BME280;44851;45.648;9.004;2024-01-07T12:09:17;97516.41;;;8.28;77.37
59063;BME280;44851;45.648;9.004;2024-01-07T12:11:43;97518.34;;;8.34;76.45
59063;BME280;44851;45.648;9.004;2024-01-07T12:14:09;97512.03;;;8.37;77.40
59063;BME280;44851;45.648;9.004;2024-01-07T12:16:36;97506.69;;;8.38;77.33
59063;BME280;44851;45.648;9.004;2024-01-07T12:19:02;97497.09;;;8.39;77.33
59063;BME280;44851;45.648;9.004;2024-01-07T12:21:27;97490.44;;;8.44;77.12
59063;BME280;44851;45.648;9.004;2024-01-07T12:23:55;97493.22;;;8.43;76.83
59063;BME280;44851;45.648;9.004;2024-01-07T12:26:26;97495.13;;;8.57;78.26
59063;BME280;44851;45.648;9.004;2024-01-07T12:28:55;97491.41;;;8.51;76.72
59063;BME280;44851;45.648;9.004;2024-01-07T12:31:23;97494.50;;;8.55;77.39
59063;BME280;44851;45.648;9.004;2024-01-07T12:33:48;97493.88;;;8.53;76.42
59063;BME280;44851;45.648;9.004;2024-01-07T12:36:14;97486.38;;;8.42;75.06
59063;BME280;44851;45.648;9.004;2024-01-07T12:38:40;97485.56;;;8.41;75.73
59063;BME280;44851;45.648;9.004;2024-01-07T12:41:06;97493.88;;;8.37;75.30
59063;BME280;44851;45.648;9.004;2024-01-07T12:43:32;97495.81;;;8.35;75.03
59063;BME280;44851;45.648;9.004;2024-01-07T12:45:57;97497.41;;;8.36;74.94
59063;BME280;44851;45.648;9.004;2024-01-07T12:48:26;97499.38;;;8.34;74.38
59063;BME280;44851;45.648;9.004;2024-01-07T12:50:51;97506.53;;;8.32;74.23
59063;BME280;44851;45.648;9.004;2024-01-07T12:53:17;97498.41;;;8.43;74.52
59063;BME280;44851;45.648;9.004;2024-01-07T12:55:43;97501.97;;;8.42;73.86
59063;BME280;44851;45.648;9.004;2024-01-07T12:58:08;97507.31;;;8.40;74.41
59063;BME280;44851;45.648;9.004;2024-01-07T13:00:34;97507.16;;;8.42;74.32
59063;BME280;44851;45.648;9.004;2024-01-07T13:03:00;97510.72;;;8.41;74.29
59063;BME280;44851;45.648;9.004;2024-01-07T13:05:26;97504.56;;;8.42;74.54
59063;BME280;44851;45.648;9.004;2024-01-07T13:07:51;97505.53;;;8.41;74.72
59063;BME280;44851;45.648;9.004;2024-01-07T13:10:16;97501.00;;;8.35;73.67